sensor_id;sensor_type;location;lat;lon;timestamp;P1;durP1;ratioP1;P2;durP2;ratioP2
11935;SDS011;6027;48.576;9.180;2023-05-10T00:01:57;1.58;;;1.48;;
11935;SDS011;6027;48.576;9.180;2023-05-10T00:04:22;2.63;;;1.90;;
11935;SDS011;6027;48.576;9.180;2023-05-10T00:06:52;1.75;;;1.65;;
11935;SDS011;6027;48.576;9.180;2023-05-10T00:09:18;3.60;;;1.80;;
11935;SDS011;6027;48.576;9.180;2023-05-10T00:11:43;2.65;;;1.80;;
11935;SDS011;6027;48.576;9.180;2023-05-10T00:14:08;1.75;;;1.65;;
11935;SDS011;6027;48.576;9.180;2023-05-10T00:16:34;3.80;;;1.65;;
11935;SDS011;6027;48.576;9.180;2023-05-10T00:18:59;3.05;;;1.77;;
11935;SDS011;6027;48.576;9.180;2023-05-10T00:21:25;1.50;;;1.40;;
11935;SDS011;6027;48.576;9.180;2023-05-10T00:23:50;4.22;;;1.60;;
11935;SDS011;6027;48.576;9.180;2023-05-10T00:26:15;2.65;;;1.50;;
11935;SDS011;6027;48.576;9.180;2023-05-10T00:28:41;1.42;;;1.33;;
11935;SDS011;6027;48.576;9.180;2023-05-10T00:31:07;1.80;;;1.70;;
11935;SDS011;6027;48.576;9.180;2023-05-10T00:33:32;2.22;;;1.60;;
11935;SDS011;6027;48.576;9.180;2023-05-10T00:35:57;2.67;;;1.20;;
11935;SDS011;6027;48.576;9.180;2023-05-10T00:38:23;4.90;;;1.52;;
11935;SDS011;6027;48.576;9.180;2023-05-10T00:40:48;0.70;;;0.70;;
11935;SDS011;6027;48.576;9.180;2023-05-10T00:43:14;0.80;;;0.80;;
11935;SDS011;6027;48.576;9.180;2023-05-10T00:45:39;0.70;;;0.70;;
11935;SDS011;6027;48.576;9.180;2023-05-10T00:48:05;0.63;;;0.63;;
11935;SDS011;6027;48.576;9.180;2023-05-10T00:50:31;1.88;;;0.95;;
11935;SDS011;6027;48.576;9.180;2023-05-10T00:52:58;1.25;;;0.80;;
11935;SDS011;6027;48.576;9.180;2023-05-10T00:55:24;1.27;;;0.90;;
11935;SDS011;6027;48.576;9.180;2023-05-10T00:57:50;1.17;;;0.68;;
11935;SDS011;6027;48.576;9.180;2023-05-10T01:00:17;5.40;;;0.80;;
11935;SDS011;6027;48.576;9.180;2023-05-10T01:02:46;4.28;;;0.75;;
11935;SDS011;6027;48.576;9.180;2023-05-10T01:05:12;1.00;;;0.88;;
11935;SDS011;6027;48.576;9.180;2023-05-10T01:07:38;0.77;;;0.77;;
11935;SDS011;6027;48.576;9.180;2023-05-10T01:10:05;2.05;;;0.75;;
11935;SDS011;6027;48.576;9.180;2023-05-10T01:12:31;2.33;;;0.73;;
11935;SDS011;6027;48.576;9.180;2023-05-10T01:14:59;0.60;;;0.60;;
11935;SDS011;6027;48.576;9.180;2023-05-10T01:17:25;1.60;;;0.73;;
11935;SDS011;6027;48.576;9.180;2023-05-10T01:19:51;0.57;;;0.55;;
11935;SDS011;6027;48.576;9.180;2023-05-10T01:36:32;2.17;;;0.70;;
11935;SDS011;6027;48.576;9.180;2023-05-10T01:47:15;1.48;;;0.60;;
11935;SDS011;6027;48.576;9.180;2023-05-10T01:49:52;1.25;;;0.60;;
11935;SDS011;6027;48.576;9.180;2023-05-10T01:52:29;1.77;;;0.60;;
11935;SDS011;6027;48.576;9.180;2023-05-10T01:55:16;4.13;;;0.80;;
11935;SDS011;6027;48.576;9.180;2023-05-10T01:57:43;2.58;;;0.80;;
11935;SDS011;6027;48.576;9.180;2023-05-10T02:00:11;0.57;;;0.57;;
11935;SDS011;6027;48.576;9.180;2023-05-10T02:02:40;0.57;;;0.57;;
11935;SDS011;6027;48.576;9.180;2023-05-10T02:05:09;1.85;;;0.60;;
11935;SDS011;6027;48.576;9.180;2023-05-10T02:07:37;1.45;;;0.60;;
11935;SDS011;6027;48.576;9.180;2023-05-10T02:10:04;2.55;;;0.77;;
11935;SDS011;6027;48.576;9.180;2023-05-10T02:12:32;0.38;;;0.38;;
11935;SDS011;6027;48.576;9.180;2023-05-10T02:15:01;2.60;;;0.50;;
11935;SDS011;6027;48.576;9.180;2023-05-10T02:17:30;1.20;;;0.40;;
11935;SDS011;6027;48.576;9.180;2023-05-10T02:20:03;1.48;;;0.50;;
11935;SDS011;6027;48.576;9.180;2023-05-10T02:22:31;0.82;;;0.43;;
11935;SDS011;6027;48.576;9.180;2023-05-10T02:24:57;1.02;;;0.50;;
11935;SDS011;6027;48.576;9.180;2023-05-10T02:27:25;1.60;;;0.70;;
11935;SDS011;6027;48.576;9.180;2023-05-10T02:29:52;3.80;;;0.60;;
11935;SDS011;6027;48.576;9.180;2023-05-10T02:32:18;0.85;;;0.40;;
11935;SDS011;6027;48.576;9.180;2023-05-10T02:34:46;4.53;;;0.52;;
11935;SDS011;6027;48.576;9.180;2023-05-10T02:37:16;2.70;;;0.50;;
11935;SDS011;6027;48.576;9.180;2023-05-10T02:39:45;0.60;;;0.50;;
11935;SDS011;6027;48.576;9.180;2023-05-10T02:42:13;0.50;;;0.50;;
11935;SDS011;6027;48.576;9.180;2023-05-10T02:44:42;1.38;;;0.60;;
11935;SDS011;6027;48.576;9.180;2023-05-10T02:47:10;0.85;;;0.60;;
11935;SDS011;6027;48.576;9.180;2023-05-10T02:49:36;1.30;;;0.50;;
11935;SDS011;6027;48.576;9.180;2023-05-10T02:52:01;4.47;;;0.70;;
11935;SDS011;6027;48.576;9.180;2023-05-10T02:54:33;0.85;;;0.55;;
11935;SDS011;6027;48.576;9.180;2023-05-10T02:57:04;1.38;;;0.57;;
11935;SDS011;6027;48.576;9.180;2023-05-10T02:59:31;1.35;;;0.57;;
11935;SDS011;6027;48.576;9.180;2023-05-10T03:01:58;0.63;;;0.63;;
11935;SDS011;6027;48.576;9.180;2023-05-10T03:04:25;1.50;;;0.70;;
11935;SDS011;6027;48.576;9.180;2023-05-10T03:06:51;0.73;;;0.50;;
11935;SDS011;6027;48.576;9.180;2023-05-10T03:09:18;0.50;;;0.50;;
11935;SDS011;6027;48.576;9.180;2023-05-10T03:12:22;1.25;;;0.60;;
11935;SDS011;6027;48.576;9.180;2023-05-10T03:17:55;2.30;;;0.70;;
11935;SDS011;6027;48.576;9.180;2023-05-10T03:20:35;1.00;;;0.90;;
11935;SDS011;6027;48.576;9.180;2023-05-10T03:23:04;1.30;;;0.77;;
11935;SDS011;6027;48.576;9.180;2023-05-10T03:25:39;0.68;;;0.68;;
11935;SDS011;6027;48.576;9.180;2023-05-10T03:28:06;0.73;;;0.73;;
11935;SDS011;6027;48.576;9.180;2023-05-10T03:30:33;1.73;;;0.98;;
11935;SDS011;6027;48.576;9.180;2023-05-10T03:33:03;3.40;;;0.77;;
11935;SDS011;6027;48.576;9.180;2023-05-10T03:35:30;2.00;;;0.77;;
11935;SDS011;6027;48.576;9.180;2023-05-10T03:37:56;1.02;;;0.82;;
11935;SDS011;6027;48.576;9.180;2023-05-10T03:40:21;3.42;;;0.80;;
11935;SDS011;6027;48.576;9.180;2023-05-10T03:42:48;0.80;;;0.80;;
11935;SDS011;6027;48.576;9.180;2023-05-10T03:45:13;1.35;;;1.08;;
11935;SDS011;6027;48.576;9.180;2023-05-10T03:47:38;0.90;;;0.90;;
11935;SDS011;6027;48.576;9.180;2023-05-10T03:50:04;1.33;;;1.00;;
11935;SDS011;6027;48.576;9.180;2023-05-10T03:52:30;1.05;;;1.05;;
11935;SDS011;6027;48.576;9.180;2023-05-10T03:54:56;1.25;;;0.90;;
11935;SDS011;6027;48.576;9.180;2023-05-10T03:57:22;1.58;;;1.10;;
11935;SDS011;6027;48.576;9.180;2023-05-10T03:59:47;1.23;;;1.10;;
11935;SDS011;6027;48.576;9.180;2023-05-10T04:02:13;1.65;;;1.20;;
11935;SDS011;6027;48.576;9.180;2023-05-10T04:04:38;1.60;;;1.10;;
11935;SDS011;6027;48.576;9.180;2023-05-10T04:07:03;0.90;;;0.90;;
11935;SDS011;6027;48.576;9.180;2023-05-10T04:09:29;2.83;;;1.08;;
11935;SDS011;6027;48.576;9.180;2023-05-10T04:11:54;5.18;;;1.42;;
11935;SDS011;6027;48.576;9.180;2023-05-10T04:14:20;1.10;;;1.00;;
11935;SDS011;6027;48.576;9.180;2023-05-10T04:16:45;1.10;;;1.00;;
11935;SDS011;6027;48.576;9.180;2023-05-10T04:19:11;3.20;;;0.98;;
11935;SDS011;6027;48.576;9.180;2023-05-10T04:21:36;1.55;;;1.00;;
11935;SDS011;6027;48.576;9.180;2023-05-10T04:24:02;1.20;;;1.10;;
11935;SDS011;6027;48.576;9.180;2023-05-10T04:26:27;3.15;;;1.15;;
11935;SDS011;6027;48.576;9.180;2023-05-10T04:28:53;3.70;;;1.25;;
11935;SDS011;6027;48.576;9.180;2023-05-10T04:31:18;4.75;;;1.50;;
11935;SDS011;6027;48.576;9.180;2023-05-10T04:33:44;2.83;;;1.48;;
11935;SDS011;6027;48.576;9.180;2023-05-10T04:36:10;2.10;;;1.52;;
11935;SDS011;6027;48.576;9.180;2023-05-10T04:38:36;3.83;;;1.27;;
11935;SDS011;6027;48.576;9.180;2023-05-10T04:41:05;4.03;;;1.30;;
11935;SDS011;6027;48.576;9.180;2023-05-10T04:43:36;2.05;;;1.40;;
11935;SDS011;6027;48.576;9.180;2023-05-10T04:46:02;7.72;;;2.63;;
11935;SDS011;6027;48.576;9.180;2023-05-10T04:48:28;4.45;;;3.50;;
11935;SDS011;6027;48.576;9.180;2023-05-10T04:50:54;5.53;;;3.25;;
11935;SDS011;6027;48.576;9.180;2023-05-10T04:53:20;6.28;;;3.30;;
11935;SDS011;6027;48.576;9.180;2023-05-10T04:55:45;6.50;;;2.38;;
11935;SDS011;6027;48.576;9.180;2023-05-10T04:58:11;6.45;;;2.28;;
11935;SDS011;6027;48.576;9.180;2023-05-10T05:00:37;7.80;;;3.95;;
11935;SDS011;6027;48.576;9.180;2023-05-10T05:03:02;7.22;;;3.10;;
11935;SDS011;6027;48.576;9.180;2023-05-10T05:05:28;5.70;;;2.50;;
11935;SDS011;6027;48.576;9.180;2023-05-10T05:07:53;5.68;;;1.83;;
11935;SDS011;6027;48.576;9.180;2023-05-10T05:10:19;6.28;;;1.90;;
11935;SDS011;6027;48.576;9.180;2023-05-10T05:12:44;3.47;;;1.83;;
11935;SDS011;6027;48.576;9.180;2023-05-10T05:15:10;3.65;;;2.00;;
11935;SDS011;6027;48.576;9.180;2023-05-10T05:17:36;2.15;;;1.95;;
11935;SDS011;6027;48.576;9.180;2023-05-10T05:20:02;3.42;;;1.85;;
11935;SDS011;6027;48.576;9.180;2023-05-10T05:22:28;2.55;;;2.20;;
11935;SDS011;6027;48.576;9.180;2023-05-10T05:24:54;2.92;;;1.90;;
11935;SDS011;6027;48.576;9.180;2023-05-10T05:27:20;4.05;;;2.80;;
11935;SDS011;6027;48.576;9.180;2023-05-10T05:29:58;3.55;;;2.00;;
11935;SDS011;6027;48.576;9.180;2023-05-10T05:32:24;2.42;;;1.90;;
11935;SDS011;6027;48.576;9.180;2023-05-10T05:34:50;2.38;;;2.03;;
11935;SDS011;6027;48.576;9.180;2023-05-10T05:37:17;2.08;;;1.80;;
11935;SDS011;6027;48.576;9.180;2023-05-10T05:39:44;6.20;;;1.95;;
11935;SDS011;6027;48.576;9.180;2023-05-10T05:42:10;2.15;;;1.92;;
11935;SDS011;6027;48.576;9.180;2023-05-10T05:44:36;3.72;;;2.03;;
11935;SDS011;6027;48.576;9.180;2023-05-10T05:47:02;3.05;;;1.90;;
11935;SDS011;6027;48.576;9.180;2023-05-10T05:49:27;2.03;;;1.75;;
11935;SDS011;6027;48.576;9.180;2023-05-10T05:51:53;4.43;;;1.73;;
11935;SDS011;6027;48.576;9.180;2023-05-10T05:54:18;4.30;;;2.10;;
11935;SDS011;6027;48.576;9.180;2023-05-10T05:56:44;2.30;;;2.10;;
11935;SDS011;6027;48.576;9.180;2023-05-10T05:59:10;1.70;;;1.60;;
11935;SDS011;6027;48.576;9.180;2023-05-10T06:01:36;2.42;;;1.73;;
11935;SDS011;6027;48.576;9.180;2023-05-10T06:04:01;2.10;;;1.88;;
11935;SDS011;6027;48.576;9.180;2023-05-10T06:06:27;2.03;;;1.70;;
11935;SDS011;6027;48.576;9.180;2023-05-10T06:08:52;2.10;;;1.88;;
11935;SDS011;6027;48.576;9.180;2023-05-10T06:11:18;3.92;;;2.70;;
11935;SDS011;6027;48.576;9.180;2023-05-10T06:13:43;2.38;;;2.17;;
11935;SDS011;6027;48.576;9.180;2023-05-10T06:16:09;2.40;;;2.13;;
11935;SDS011;6027;48.576;9.180;2023-05-10T06:18:34;5.68;;;2.38;;
11935;SDS011;6027;48.576;9.180;2023-05-10T06:21:00;3.45;;;2.10;;
11935;SDS011;6027;48.576;9.180;2023-05-10T06:23:25;2.30;;;2.10;;
11935;SDS011;6027;48.576;9.180;2023-05-10T06:25:51;2.38;;;2.10;;
11935;SDS011;6027;48.576;9.180;2023-05-10T06:28:17;4.75;;;2.50;;
11935;SDS011;6027;48.576;9.180;2023-05-10T06:30:42;2.65;;;1.95;;
11935;SDS011;6027;48.576;9.180;2023-05-10T06:33:08;2.92;;;2.08;;
11935;SDS011;6027;48.576;9.180;2023-05-10T06:35:33;2.67;;;2.47;;
11935;SDS011;6027;48.576;9.180;2023-05-10T06:37:59;2.33;;;2.08;;
11935;SDS011;6027;48.576;9.180;2023-05-10T06:40:24;3.90;;;2.33;;
11935;SDS011;6027;48.576;9.180;2023-05-10T06:42:50;2.53;;;2.33;;
11935;SDS011;6027;48.576;9.180;2023-05-10T06:45:16;2.58;;;2.38;;
11935;SDS011;6027;48.576;9.180;2023-05-10T06:47:42;2.38;;;2.10;;
11935;SDS011;6027;48.576;9.180;2023-05-10T06:50:08;2.20;;;2.00;;
11935;SDS011;6027;48.576;9.180;2023-05-10T06:52:34;3.25;;;2.33;;
11935;SDS011;6027;48.576;9.180;2023-05-10T06:55:00;4.47;;;2.28;;
11935;SDS011;6027;48.576;9.180;2023-05-10T06:57:26;3.03;;;2.10;;
11935;SDS011;6027;48.576;9.180;2023-05-10T06:59:52;3.38;;;2.38;;
11935;SDS011;6027;48.576;9.180;2023-05-10T07:02:17;2.47;;;2.28;;
11935;SDS011;6027;48.576;9.180;2023-05-10T07:04:43;3.05;;;1.90;;
11935;SDS011;6027;48.576;9.180;2023-05-10T07:07:08;2.10;;;1.90;;
11935;SDS011;6027;48.576;9.180;2023-05-10T07:09:34;2.88;;;2.03;;
11935;SDS011;6027;48.576;9.180;2023-05-10T07:11:59;2.22;;;2.00;;
11935;SDS011;6027;48.576;9.180;2023-05-10T07:14:27;4.75;;;1.67;;
11935;SDS011;6027;48.576;9.180;2023-05-10T07:16:53;3.50;;;1.52;;
11935;SDS011;6027;48.576;9.180;2023-05-10T07:19:18;1.38;;;1.27;;
11935;SDS011;6027;48.576;9.180;2023-05-10T07:21:44;1.48;;;1.38;;
11935;SDS011;6027;48.576;9.180;2023-05-10T07:24:09;1.42;;;1.30;;
11935;SDS011;6027;48.576;9.180;2023-05-10T07:26:35;1.55;;;1.40;;
11935;SDS011;6027;48.576;9.180;2023-05-10T07:29:00;1.40;;;1.30;;
11935;SDS011;6027;48.576;9.180;2023-05-10T07:31:26;2.30;;;1.42;;
11935;SDS011;6027;48.576;9.180;2023-05-10T07:33:51;4.18;;;1.50;;
11935;SDS011;6027;48.576;9.180;2023-05-10T07:36:16;1.42;;;1.10;;
11935;SDS011;6027;48.576;9.180;2023-05-10T07:38:42;1.85;;;1.20;;
11935;SDS011;6027;48.576;9.180;2023-05-10T07:41:07;1.23;;;1.13;;
11935;SDS011;6027;48.576;9.180;2023-05-10T07:43:33;2.20;;;1.17;;
11935;SDS011;6027;48.576;9.180;2023-05-10T07:45:58;1.77;;;1.30;;
11935;SDS011;6027;48.576;9.180;2023-05-10T07:48:24;1.15;;;0.95;;
11935;SDS011;6027;48.576;9.180;2023-05-10T07:50:50;1.20;;;1.10;;
11935;SDS011;6027;48.576;9.180;2023-05-10T07:53:16;1.25;;;1.10;;
11935;SDS011;6027;48.576;9.180;2023-05-10T07:55:44;2.20;;;1.02;;
11935;SDS011;6027;48.576;9.180;2023-05-10T07:58:10;1.02;;;0.93;;
11935;SDS011;6027;48.576;9.180;2023-05-10T08:00:35;1.50;;;1.00;;
11935;SDS011;6027;48.576;9.180;2023-05-10T08:03:04;2.03;;;1.10;;
11935;SDS011;6027;48.576;9.180;2023-05-10T08:05:29;1.67;;;1.10;;
11935;SDS011;6027;48.576;9.180;2023-05-10T08:07:55;2.65;;;1.15;;
11935;SDS011;6027;48.576;9.180;2023-05-10T08:10:20;0.70;;;0.70;;
11935;SDS011;6027;48.576;9.180;2023-05-10T08:12:45;1.27;;;0.85;;
11935;SDS011;6027;48.576;9.180;2023-05-10T08:15:11;1.20;;;0.90;;
11935;SDS011;6027;48.576;9.180;2023-05-10T08:17:36;2.72;;;1.10;;
11935;SDS011;6027;48.576;9.180;2023-05-10T08:20:02;3.55;;;1.10;;
11935;SDS011;6027;48.576;9.180;2023-05-10T08:22:27;0.98;;;0.98;;
11935;SDS011;6027;48.576;9.180;2023-05-10T08:24:53;1.90;;;0.90;;
11935;SDS011;6027;48.576;9.180;2023-05-10T08:27:18;3.35;;;1.08;;
11935;SDS011;6027;48.576;9.180;2023-05-10T08:29:43;0.98;;;0.90;;
11935;SDS011;6027;48.576;9.180;2023-05-10T08:32:09;1.85;;;0.98;;
11935;SDS011;6027;48.576;9.180;2023-05-10T08:34:34;2.60;;;0.90;;
11935;SDS011;6027;48.576;9.180;2023-05-10T08:37:00;1.52;;;0.90;;
11935;SDS011;6027;48.576;9.180;2023-05-10T08:39:25;0.93;;;0.90;;
11935;SDS011;6027;48.576;9.180;2023-05-10T08:41:51;1.10;;;0.93;;
11935;SDS011;6027;48.576;9.180;2023-05-10T08:44:18;1.77;;;0.90;;
11935;SDS011;6027;48.576;9.180;2023-05-10T08:46:46;0.98;;;0.80;;
11935;SDS011;6027;48.576;9.180;2023-05-10T08:49:16;0.98;;;0.65;;
11935;SDS011;6027;48.576;9.180;2023-05-10T08:51:52;0.52;;;0.52;;
11935;SDS011;6027;48.576;9.180;2023-05-10T08:54:20;2.63;;;0.70;;
11935;SDS011;6027;48.576;9.180;2023-05-10T08:56:46;0.98;;;0.60;;
11935;SDS011;6027;48.576;9.180;2023-05-10T08:59:12;0.75;;;0.50;;
11935;SDS011;6027;48.576;9.180;2023-05-10T09:01:39;0.90;;;0.70;;
11935;SDS011;6027;48.576;9.180;2023-05-10T09:04:05;0.73;;;0.40;;
11935;SDS011;6027;48.576;9.180;2023-05-10T09:06:30;0.57;;;0.50;;
11935;SDS011;6027;48.576;9.180;2023-05-10T09:08:57;0.60;;;0.50;;
11935;SDS011;6027;48.576;9.180;2023-05-10T09:11:23;0.73;;;0.60;;
11935;SDS011;6027;48.576;9.180;2023-05-10T09:13:49;0.30;;;0.30;;
11935;SDS011;6027;48.576;9.180;2023-05-10T09:16:16;0.40;;;0.40;;
11935;SDS011;6027;48.576;9.180;2023-05-10T09:18:42;1.10;;;0.50;;
11935;SDS011;6027;48.576;9.180;2023-05-10T09:21:08;1.48;;;0.60;;
11935;SDS011;6027;48.576;9.180;2023-05-10T09:23:34;2.17;;;0.40;;
11935;SDS011;6027;48.576;9.180;2023-05-10T09:26:06;0.55;;;0.55;;
11935;SDS011;6027;48.576;9.180;2023-05-10T09:28:33;2.30;;;0.60;;
11935;SDS011;6027;48.576;9.180;2023-05-10T09:33:26;2.25;;;0.60;;
11935;SDS011;6027;48.576;9.180;2023-05-10T09:35:52;0.50;;;0.50;;
11935;SDS011;6027;48.576;9.180;2023-05-10T09:38:18;2.25;;;0.40;;
11935;SDS011;6027;48.576;9.180;2023-05-10T09:40:50;0.40;;;0.40;;
11935;SDS011;6027;48.576;9.180;2023-05-10T09:43:19;1.20;;;0.60;;
11935;SDS011;6027;48.576;9.180;2023-05-10T09:45:45;0.40;;;0.40;;
11935;SDS011;6027;48.576;9.180;2023-05-10T09:48:14;0.75;;;0.40;;
11935;SDS011;6027;48.576;9.180;2023-05-10T09:50:40;0.93;;;0.40;;
11935;SDS011;6027;48.576;9.180;2023-05-10T09:53:06;2.22;;;0.50;;
11935;SDS011;6027;48.576;9.180;2023-05-10T09:55:39;0.52;;;0.40;;
11935;SDS011;6027;48.576;9.180;2023-05-10T09:58:06;0.75;;;0.43;;
11935;SDS011;6027;48.576;9.180;2023-05-10T10:00:42;0.40;;;0.40;;
11935;SDS011;6027;48.576;9.180;2023-05-10T10:03:12;0.45;;;0.35;;
11935;SDS011;6027;48.576;9.180;2023-05-10T10:05:40;0.68;;;0.30;;
11935;SDS011;6027;48.576;9.180;2023-05-10T10:08:07;0.40;;;0.40;;
11935;SDS011;6027;48.576;9.180;2023-05-10T10:10:33;0.52;;;0.43;;
11935;SDS011;6027;48.576;9.180;2023-05-10T10:12:59;0.40;;;0.20;;
11935;SDS011;6027;48.576;9.180;2023-05-10T10:15:25;0.88;;;0.50;;
11935;SDS011;6027;48.576;9.180;2023-05-10T10:17:51;1.85;;;0.40;;
11935;SDS011;6027;48.576;9.180;2023-05-10T10:20:18;0.32;;;0.30;;
11935;SDS011;6027;48.576;9.180;2023-05-10T10:22:45;0.98;;;0.30;;
11935;SDS011;6027;48.576;9.180;2023-05-10T10:25:12;1.08;;;0.50;;
11935;SDS011;6027;48.576;9.180;2023-05-10T10:35:51;1.30;;;0.50;;
11935;SDS011;6027;48.576;9.180;2023-05-10T10:38:18;1.13;;;0.65;;
11935;SDS011;6027;48.576;9.180;2023-05-10T10:40:43;0.80;;;0.43;;
11935;SDS011;6027;48.576;9.180;2023-05-10T10:43:24;0.63;;;0.57;;
11935;SDS011;6027;48.576;9.180;2023-05-10T10:46:10;0.75;;;0.50;;
11935;SDS011;6027;48.576;9.180;2023-05-10T10:48:39;0.47;;;0.43;;
11935;SDS011;6027;48.576;9.180;2023-05-10T10:51:16;0.60;;;0.50;;
11935;SDS011;6027;48.576;9.180;2023-05-10T10:53:42;0.50;;;0.50;;
11935;SDS011;6027;48.576;9.180;2023-05-10T10:56:09;4.03;;;0.50;;
11935;SDS011;6027;48.576;9.180;2023-05-10T10:58:39;1.02;;;0.70;;
11935;SDS011;6027;48.576;9.180;2023-05-10T11:01:15;2.33;;;0.70;;
11935;SDS011;6027;48.576;9.180;2023-05-10T11:03:54;3.03;;;0.80;;
11935;SDS011;6027;48.576;9.180;2023-05-10T11:06:33;0.98;;;0.60;;
11935;SDS011;6027;48.576;9.180;2023-05-10T11:09:06;5.75;;;0.93;;
11935;SDS011;6027;48.576;9.180;2023-05-10T11:11:32;9.88;;;1.00;;
11935;SDS011;6027;48.576;9.180;2023-05-10T11:14:03;6.57;;;1.10;;
11935;SDS011;6027;48.576;9.180;2023-05-10T11:16:40;14.15;;;0.95;;
11935;SDS011;6027;48.576;9.180;2023-05-10T11:19:10;14.88;;;1.23;;
11935;SDS011;6027;48.576;9.180;2023-05-10T11:21:49;2.80;;;0.68;;
11935;SDS011;6027;48.576;9.180;2023-05-10T11:24:26;16.52;;;1.20;;
11935;SDS011;6027;48.576;9.180;2023-05-10T11:26:52;5.40;;;1.00;;
11935;SDS011;6027;48.576;9.180;2023-05-10T11:29:18;11.50;;;1.23;;
11935;SDS011;6027;48.576;9.180;2023-05-10T11:31:45;5.50;;;0.85;;
11935;SDS011;6027;48.576;9.180;2023-05-10T11:34:11;3.55;;;0.70;;
11935;SDS011;6027;48.576;9.180;2023-05-10T11:36:50;6.53;;;0.80;;
11935;SDS011;6027;48.576;9.180;2023-05-10T11:39:19;1.13;;;0.63;;
11935;SDS011;6027;48.576;9.180;2023-05-10T11:41:49;5.55;;;0.85;;
11935;SDS011;6027;48.576;9.180;2023-05-10T11:44:15;3.42;;;0.90;;
11935;SDS011;6027;48.576;9.180;2023-05-10T11:46:40;2.53;;;0.88;;
11935;SDS011;6027;48.576;9.180;2023-05-10T11:49:06;3.05;;;0.90;;
11935;SDS011;6027;48.576;9.180;2023-05-10T11:51:33;3.17;;;1.00;;
11935;SDS011;6027;48.576;9.180;2023-05-10T11:54:00;2.15;;;0.77;;
11935;SDS011;6027;48.576;9.180;2023-05-10T11:56:26;2.17;;;0.73;;
11935;SDS011;6027;48.576;9.180;2023-05-10T11:58:55;3.03;;;0.82;;
11935;SDS011;6027;48.576;9.180;2023-05-10T12:01:22;1.60;;;0.63;;
11935;SDS011;6027;48.576;9.180;2023-05-10T12:03:50;2.33;;;0.75;;
11935;SDS011;6027;48.576;9.180;2023-05-10T12:06:17;2.17;;;0.80;;
11935;SDS011;6027;48.576;9.180;2023-05-10T12:08:44;4.05;;;0.98;;
11935;SDS011;6027;48.576;9.180;2023-05-10T12:11:12;2.08;;;1.00;;
11935;SDS011;6027;48.576;9.180;2023-05-10T12:13:39;1.25;;;0.90;;
11935;SDS011;6027;48.576;9.180;2023-05-10T12:16:12;2.92;;;1.02;;
11935;SDS011;6027;48.576;9.180;2023-05-10T12:18:42;0.85;;;0.75;;
11935;SDS011;6027;48.576;9.180;2023-05-10T12:21:09;1.77;;;0.70;;
11935;SDS011;6027;48.576;9.180;2023-05-10T12:23:35;0.80;;;0.80;;
11935;SDS011;6027;48.576;9.180;2023-05-10T12:26:04;1.95;;;0.93;;
11935;SDS011;6027;48.576;9.180;2023-05-10T12:28:31;2.15;;;1.15;;
11935;SDS011;6027;48.576;9.180;2023-05-10T12:31:00;3.72;;;1.00;;
11935;SDS011;6027;48.576;9.180;2023-05-10T12:33:27;1.50;;;1.00;;
11935;SDS011;6027;48.576;9.180;2023-05-10T12:36:00;0.95;;;0.90;;
11935;SDS011;6027;48.576;9.180;2023-05-10T12:39:01;3.25;;;1.00;;
11935;SDS011;6027;48.576;9.180;2023-05-10T12:41:27;2.50;;;0.90;;
11935;SDS011;6027;48.576;9.180;2023-05-10T12:43:52;1.42;;;1.05;;
11935;SDS011;6027;48.576;9.180;2023-05-10T12:46:17;1.38;;;0.82;;
11935;SDS011;6027;48.576;9.180;2023-05-10T12:48:44;1.45;;;0.82;;
11935;SDS011;6027;48.576;9.180;2023-05-10T12:51:19;3.17;;;0.80;;
11935;SDS011;6027;48.576;9.180;2023-05-10T12:53:47;0.60;;;0.60;;
11935;SDS011;6027;48.576;9.180;2023-05-10T12:56:13;2.35;;;0.93;;
11935;SDS011;6027;48.576;9.180;2023-05-10T12:58:38;0.77;;;0.70;;
11935;SDS011;6027;48.576;9.180;2023-05-10T13:01:04;0.93;;;0.75;;
11935;SDS011;6027;48.576;9.180;2023-05-10T13:03:30;1.13;;;0.77;;
11935;SDS011;6027;48.576;9.180;2023-05-10T13:05:56;0.98;;;0.68;;
11935;SDS011;6027;48.576;9.180;2023-05-10T13:08:21;2.60;;;0.70;;
11935;SDS011;6027;48.576;9.180;2023-05-10T13:10:46;1.58;;;0.70;;
11935;SDS011;6027;48.576;9.180;2023-05-10T13:13:12;1.13;;;0.90;;
11935;SDS011;6027;48.576;9.180;2023-05-10T13:15:37;3.17;;;0.70;;
11935;SDS011;6027;48.576;9.180;2023-05-10T13:18:03;1.85;;;0.70;;
11935;SDS011;6027;48.576;9.180;2023-05-10T13:20:28;1.40;;;0.70;;
11935;SDS011;6027;48.576;9.180;2023-05-10T13:22:54;2.30;;;0.95;;
11935;SDS011;6027;48.576;9.180;2023-05-10T13:25:19;1.50;;;0.80;;
11935;SDS011;6027;48.576;9.180;2023-05-10T13:27:45;0.93;;;0.70;;
11935;SDS011;6027;48.576;9.180;2023-05-10T13:30:10;1.80;;;0.77;;
11935;SDS011;6027;48.576;9.180;2023-05-10T13:32:38;3.78;;;0.80;;
11935;SDS011;6027;48.576;9.180;2023-05-10T13:35:04;2.28;;;0.57;;
11935;SDS011;6027;48.576;9.180;2023-05-10T13:37:30;0.75;;;0.75;;
11935;SDS011;6027;48.576;9.180;2023-05-10T13:39:56;0.95;;;0.70;;
11935;SDS011;6027;48.576;9.180;2023-05-10T13:42:22;2.22;;;0.82;;
11935;SDS011;6027;48.576;9.180;2023-05-10T13:44:48;2.35;;;0.70;;
11935;SDS011;6027;48.576;9.180;2023-05-10T13:47:14;5.35;;;0.90;;
11935;SDS011;6027;48.576;9.180;2023-05-10T13:49:40;0.80;;;0.80;;
11935;SDS011;6027;48.576;9.180;2023-05-10T13:52:05;2.33;;;1.02;;
11935;SDS011;6027;48.576;9.180;2023-05-10T13:54:38;1.20;;;0.82;;
11935;SDS011;6027;48.576;9.180;2023-05-10T13:57:03;1.75;;;0.80;;
11935;SDS011;6027;48.576;9.180;2023-05-10T13:59:29;1.90;;;0.70;;
11935;SDS011;6027;48.576;9.180;2023-05-10T14:01:57;1.77;;;0.90;;
11935;SDS011;6027;48.576;9.180;2023-05-10T14:04:23;0.90;;;0.60;;
11935;SDS011;6027;48.576;9.180;2023-05-10T14:06:49;1.73;;;0.63;;
11935;SDS011;6027;48.576;9.180;2023-05-10T14:09:14;1.50;;;0.80;;
11935;SDS011;6027;48.576;9.180;2023-05-10T14:11:39;2.85;;;0.98;;
11935;SDS011;6027;48.576;9.180;2023-05-10T14:14:08;2.17;;;0.60;;
11935;SDS011;6027;48.576;9.180;2023-05-10T14:16:35;3.53;;;1.00;;
11935;SDS011;6027;48.576;9.180;2023-05-10T14:19:00;2.00;;;0.90;;
11935;SDS011;6027;48.576;9.180;2023-05-10T14:21:26;3.45;;;0.98;;
11935;SDS011;6027;48.576;9.180;2023-05-10T14:23:53;0.77;;;0.77;;
11935;SDS011;6027;48.576;9.180;2023-05-10T14:26:19;2.65;;;0.60;;
11935;SDS011;6027;48.576;9.180;2023-05-10T14:28:45;2.10;;;0.70;;
11935;SDS011;6027;48.576;9.180;2023-05-10T14:31:11;1.58;;;0.60;;
11935;SDS011;6027;48.576;9.180;2023-05-10T14:33:36;2.38;;;0.70;;
11935;SDS011;6027;48.576;9.180;2023-05-10T14:36:02;1.02;;;0.60;;
11935;SDS011;6027;48.576;9.180;2023-05-10T14:38:28;2.67;;;0.85;;
11935;SDS011;6027;48.576;9.180;2023-05-10T14:40:53;2.15;;;0.80;;
11935;SDS011;6027;48.576;9.180;2023-05-10T14:43:19;2.33;;;0.82;;
11935;SDS011;6027;48.576;9.180;2023-05-10T14:45:44;3.55;;;0.88;;
11935;SDS011;6027;48.576;9.180;2023-05-10T14:48:10;3.95;;;0.90;;
11935;SDS011;6027;48.576;9.180;2023-05-10T14:50:40;2.40;;;0.70;;
11935;SDS011;6027;48.576;9.180;2023-05-10T14:53:06;1.30;;;0.60;;
11935;SDS011;6027;48.576;9.180;2023-05-10T14:55:31;2.38;;;0.88;;
11935;SDS011;6027;48.576;9.180;2023-05-10T14:57:57;2.28;;;0.90;;
11935;SDS011;6027;48.576;9.180;2023-05-10T15:00:23;1.00;;;0.70;;
11935;SDS011;6027;48.576;9.180;2023-05-10T15:02:48;2.58;;;0.90;;
11935;SDS011;6027;48.576;9.180;2023-05-10T15:05:14;1.77;;;0.88;;
11935;SDS011;6027;48.576;9.180;2023-05-10T15:07:40;3.10;;;0.90;;
11935;SDS011;6027;48.576;9.180;2023-05-10T15:10:05;2.67;;;0.88;;
11935;SDS011;6027;48.576;9.180;2023-05-10T15:12:31;3.75;;;1.10;;
11935;SDS011;6027;48.576;9.180;2023-05-10T15:14:56;2.28;;;0.80;;
11935;SDS011;6027;48.576;9.180;2023-05-10T15:17:22;0.98;;;0.70;;
11935;SDS011;6027;48.576;9.180;2023-05-10T15:19:47;3.70;;;1.00;;
11935;SDS011;6027;48.576;9.180;2023-05-10T15:22:14;1.48;;;0.90;;
11935;SDS011;6027;48.576;9.180;2023-05-10T15:24:40;0.95;;;0.75;;
11935;SDS011;6027;48.576;9.180;2023-05-10T15:27:05;1.30;;;0.73;;
11935;SDS011;6027;48.576;9.180;2023-05-10T15:29:31;1.73;;;0.60;;
11935;SDS011;6027;48.576;9.180;2023-05-10T15:31:56;1.35;;;0.82;;
11935;SDS011;6027;48.576;9.180;2023-05-10T15:34:22;1.80;;;0.70;;
11935;SDS011;6027;48.576;9.180;2023-05-10T15:36:47;1.60;;;0.60;;